sensor_id;sensor_type;location;lat;lon;timestamp;P1;durP1;ratioP1;P2;durP2;ratioP2
67195;SDS011;54122;53.538;49.366;2023-12-28T00:01:59;7.53;;;3.85;;
67195;SDS011;54122;53.538;49.366;2023-12-28T00:04:25;8.77;;;3.25;;
67195;SDS011;54122;53.538;49.366;2023-12-28T00:06:53;8.40;;;3.95;;
67195;SDS011;54122;53.538;49.366;2023-12-28T00:09:19;11.05;;;4.57;;
67195;SDS011;54122;53.538;49.366;2023-12-28T00:11:45;10.02;;;4.70;;
67195;SDS011;54122;53.538;49.366;2023-12-28T00:14:11;10.63;;;3.78;;
67195;SDS011;54122;53.538;49.366;2023-12-28T00:16:38;8.25;;;3.88;;
67195;SDS011;54122;53.538;49.366;2023-12-28T00:19:04;15.05;;;4.68;;
67195;SDS011;54122;53.538;49.366;2023-12-28T00:21:31;8.27;;;4.28;;
67195;SDS011;54122;53.538;49.366;2023-12-28T00:23:58;8.15;;;3.88;;
67195;SDS011;54122;53.538;49.366;2023-12-28T00:26:24;8.23;;;4.07;;
67195;SDS011;54122;53.538;49.366;2023-12-28T00:28:51;8.35;;;3.83;;
67195;SDS011;54122;53.538;49.366;2023-12-28T00:31:18;10.63;;;4.18;;
67195;SDS011;54122;53.538;49.366;2023-12-28T00:33:45;7.53;;;4.07;;
67195;SDS011;54122;53.538;49.366;2023-12-28T00:36:11;10.13;;;4.80;;
67195;SDS011;54122;53.538;49.366;2023-12-28T00:38:37;9.65;;;4.10;;
67195;SDS011;54122;53.538;49.366;2023-12-28T00:41:04;9.77;;;5.22;;
67195;SDS011;54122;53.538;49.366;2023-12-28T00:43:30;9.20;;;4.43;;
67195;SDS011;54122;53.538;49.366;2023-12-28T00:45:56;10.43;;;4.80;;
67195;SDS011;54122;53.538;49.366;2023-12-28T00:48:23;10.38;;;5.25;;
67195;SDS011;54122;53.538;49.366;2023-12-28T00:50:49;7.60;;;3.72;;
67195;SDS011;54122;53.538;49.366;2023-12-28T00:53:15;9.00;;;3.90;;
67195;SDS011;54122;53.538;49.366;2023-12-28T00:55:41;9.85;;;4.85;;
67195;SDS011;54122;53.538;49.366;2023-12-28T00:58:07;9.27;;;4.65;;
67195;SDS011;54122;53.538;49.366;2023-12-28T01:00:33;8.63;;;4.13;;
67195;SDS011;54122;53.538;49.366;2023-12-28T01:03:00;7.22;;;4.25;;
67195;SDS011;54122;53.538;49.366;2023-12-28T01:05:26;9.13;;;4.40;;
67195;SDS011;54122;53.538;49.366;2023-12-28T01:07:54;8.00;;;3.90;;
67195;SDS011;54122;53.538;49.366;2023-12-28T01:10:20;7.60;;;4.18;;
67195;SDS011;54122;53.538;49.366;2023-12-28T01:12:47;8.55;;;4.38;;
67195;SDS011;54122;53.538;49.366;2023-12-28T01:15:13;10.50;;;4.50;;
67195;SDS011;54122;53.538;49.366;2023-12-28T01:17:39;13.13;;;4.88;;
67195;SDS011;54122;53.538;49.366;2023-12-28T01:20:05;9.02;;;4.75;;
67195;SDS011;54122;53.538;49.366;2023-12-28T01:22:33;14.40;;;5.00;;
67195;SDS011;54122;53.538;49.366;2023-12-28T01:24:59;7.72;;;3.67;;
67195;SDS011;54122;53.538;49.366;2023-12-28T01:27:25;11.52;;;4.90;;
67195;SDS011;54122;53.538;49.366;2023-12-28T01:29:52;12.32;;;4.65;;
67195;SDS011;54122;53.538;49.366;2023-12-28T01:32:18;11.15;;;4.82;;
67195;SDS011;54122;53.538;49.366;2023-12-28T01:34:45;9.50;;;4.82;;
67195;SDS011;54122;53.538;49.366;2023-12-28T01:37:11;13.05;;;4.88;;
67195;SDS011;54122;53.538;49.366;2023-12-28T01:39:38;9.18;;;4.15;;
67195;SDS011;54122;53.538;49.366;2023-12-28T01:42:05;8.50;;;4.20;;
67195;SDS011;54122;53.538;49.366;2023-12-28T01:44:32;9.63;;;3.47;;
67195;SDS011;54122;53.538;49.366;2023-12-28T01:46:58;7.30;;;3.53;;
67195;SDS011;54122;53.538;49.366;2023-12-28T01:49:25;7.53;;;3.83;;
67195;SDS011;54122;53.538;49.366;2023-12-28T01:51:51;6.10;;;3.45;;
67195;SDS011;54122;53.538;49.366;2023-12-28T01:54:19;7.30;;;3.78;;
67195;SDS011;54122;53.538;49.366;2023-12-28T01:56:45;9.65;;;4.75;;
67195;SDS011;54122;53.538;49.366;2023-12-28T01:59:11;9.63;;;4.43;;
67195;SDS011;54122;53.538;49.366;2023-12-28T02:01:41;14.73;;;5.68;;
67195;SDS011;54122;53.538;49.366;2023-12-28T02:04:07;22.60;;;7.32;;
67195;SDS011;54122;53.538;49.366;2023-12-28T02:06:34;12.52;;;6.20;;
67195;SDS011;54122;53.538;49.366;2023-12-28T02:09:01;11.70;;;5.88;;
67195;SDS011;54122;53.538;49.366;2023-12-28T02:11:27;10.82;;;5.68;;
67195;SDS011;54122;53.538;49.366;2023-12-28T02:13:55;16.00;;;4.50;;
67195;SDS011;54122;53.538;49.366;2023-12-28T02:16:36;13.30;;;5.00;;
67195;SDS011;54122;53.538;49.366;2023-12-28T02:22:01;12.17;;;4.20;;
67195;SDS011;54122;53.538;49.366;2023-12-28T02:24:28;7.47;;;3.30;;
67195;SDS011;54122;53.538;49.366;2023-12-28T02:26:55;6.35;;;3.03;;
67195;SDS011;54122;53.538;49.366;2023-12-28T02:29:22;8.77;;;3.50;;
67195;SDS011;54122;53.538;49.366;2023-12-28T02:31:53;5.38;;;2.67;;
67195;SDS011;54122;53.538;49.366;2023-12-28T02:34:28;5.28;;;2.75;;
67195;SDS011;54122;53.538;49.366;2023-12-28T02:37:00;7.72;;;3.20;;
67195;SDS011;54122;53.538;49.366;2023-12-28T02:39:28;8.32;;;2.90;;
67195;SDS011;54122;53.538;49.366;2023-12-28T02:41:56;6.30;;;3.28;;
67195;SDS011;54122;53.538;49.366;2023-12-28T02:44:23;7.78;;;3.67;;
67195;SDS011;54122;53.538;49.366;2023-12-28T02:46:50;7.35;;;3.85;;
67195;SDS011;54122;53.538;49.366;2023-12-28T02:49:16;6.53;;;2.80;;
67195;SDS011;54122;53.538;49.366;2023-12-28T02:51:42;16.52;;;3.20;;
67195;SDS011;54122;53.538;49.366;2023-12-28T02:54:09;7.00;;;3.10;;
67195;SDS011;54122;53.538;49.366;2023-12-28T02:56:35;6.72;;;2.97;;
67195;SDS011;54122;53.538;49.366;2023-12-28T02:59:02;9.95;;;3.42;;
67195;SDS011;54122;53.538;49.366;2023-12-28T03:01:28;8.35;;;3.72;;
67195;SDS011;54122;53.538;49.366;2023-12-28T03:03:55;8.77;;;3.05;;
67195;SDS011;54122;53.538;49.366;2023-12-28T03:06:21;10.82;;;3.53;;
67195;SDS011;54122;53.538;49.366;2023-12-28T03:08:48;8.73;;;3.70;;
67195;SDS011;54122;53.538;49.366;2023-12-28T03:11:14;9.23;;;3.28;;
67195;SDS011;54122;53.538;49.366;2023-12-28T03:13:41;7.25;;;2.92;;
67195;SDS011;54122;53.538;49.366;2023-12-28T03:16:08;6.22;;;3.05;;
67195;SDS011;54122;53.538;49.366;2023-12-28T03:18:34;4.10;;;2.45;;
67195;SDS011;54122;53.538;49.366;2023-12-28T03:21:01;8.85;;;2.95;;
67195;SDS011;54122;53.538;49.366;2023-12-28T03:23:27;7.95;;;3.78;;
67195;SDS011;54122;53.538;49.366;2023-12-28T03:25:53;8.48;;;3.08;;
67195;SDS011;54122;53.538;49.366;2023-12-28T03:28:20;19.40;;;3.65;;
67195;SDS011;54122;53.538;49.366;2023-12-28T03:30:47;9.32;;;3.10;;
67195;SDS011;54122;53.538;49.366;2023-12-28T03:33:13;8.45;;;3.30;;
67195;SDS011;54122;53.538;49.366;2023-12-28T03:35:40;6.20;;;2.72;;
67195;SDS011;54122;53.538;49.366;2023-12-28T03:38:06;7.57;;;2.72;;
67195;SDS011;54122;53.538;49.366;2023-12-28T03:40:33;7.53;;;3.25;;
67195;SDS011;54122;53.538;49.366;2023-12-28T03:42:59;5.82;;;2.95;;
67195;SDS011;54122;53.538;49.366;2023-12-28T03:45:26;10.00;;;3.53;;
67195;SDS011;54122;53.538;49.366;2023-12-28T03:47:52;7.97;;;3.45;;
67195;SDS011;54122;53.538;49.366;2023-12-28T03:50:19;6.72;;;3.00;;
67195;SDS011;54122;53.538;49.366;2023-12-28T03:52:45;10.27;;;3.10;;
67195;SDS011;54122;53.538;49.366;2023-12-28T03:55:11;6.63;;;3.45;;
67195;SDS011;54122;53.538;49.366;2023-12-28T03:57:38;6.97;;;3.83;;
67195;SDS011;54122;53.538;49.366;2023-12-28T04:00:05;7.88;;;3.47;;
67195;SDS011;54122;53.538;49.366;2023-12-28T04:02:32;8.52;;;3.78;;
67195;SDS011;54122;53.538;49.366;2023-12-28T04:04:59;8.07;;;2.47;;
67195;SDS011;54122;53.538;49.366;2023-12-28T04:07:25;6.10;;;2.70;;
67195;SDS011;54122;53.538;49.366;2023-12-28T04:09:52;6.75;;;3.17;;
67195;SDS011;54122;53.538;49.366;2023-12-28T04:12:18;8.18;;;3.58;;
67195;SDS011;54122;53.538;49.366;2023-12-28T04:14:45;7.72;;;2.70;;
67195;SDS011;54122;53.538;49.366;2023-12-28T04:17:11;9.90;;;3.75;;
67195;SDS011;54122;53.538;49.366;2023-12-28T04:19:38;7.85;;;2.75;;
67195;SDS011;54122;53.538;49.366;2023-12-28T04:22:04;5.70;;;2.90;;
67195;SDS011;54122;53.538;49.366;2023-12-28T04:24:33;9.10;;;4.32;;
67195;SDS011;54122;53.538;49.366;2023-12-28T04:26:59;6.28;;;3.05;;
67195;SDS011;54122;53.538;49.366;2023-12-28T04:29:27;7.85;;;3.95;;
67195;SDS011;54122;53.538;49.366;2023-12-28T04:31:53;9.25;;;3.85;;
67195;SDS011;54122;53.538;49.366;2023-12-28T04:34:20;6.82;;;2.88;;
67195;SDS011;54122;53.538;49.366;2023-12-28T04:36:47;10.98;;;4.88;;
67195;SDS011;54122;53.538;49.366;2023-12-28T04:39:14;8.30;;;3.60;;
67195;SDS011;54122;53.538;49.366;2023-12-28T04:41:41;16.50;;;4.97;;
67195;SDS011;54122;53.538;49.366;2023-12-28T04:44:09;13.73;;;6.25;;
67195;SDS011;54122;53.538;49.366;2023-12-28T04:46:38;14.85;;;5.50;;
67195;SDS011;54122;53.538;49.366;2023-12-28T04:49:10;13.65;;;6.30;;
67195;SDS011;54122;53.538;49.366;2023-12-28T04:51:42;11.15;;;5.72;;
67195;SDS011;54122;53.538;49.366;2023-12-28T04:54:09;14.65;;;5.97;;
67195;SDS011;54122;53.538;49.366;2023-12-28T04:56:36;12.70;;;5.63;;
67195;SDS011;54122;53.538;49.366;2023-12-28T04:59:02;16.88;;;6.25;;
67195;SDS011;54122;53.538;49.366;2023-12-28T05:01:30;11.02;;;3.90;;
67195;SDS011;54122;53.538;49.366;2023-12-28T05:03:58;13.90;;;5.15;;
67195;SDS011;54122;53.538;49.366;2023-12-28T05:06:27;18.67;;;6.78;;
67195;SDS011;54122;53.538;49.366;2023-12-28T05:08:55;16.50;;;7.35;;
67195;SDS011;54122;53.538;49.366;2023-12-28T05:11:21;13.65;;;7.05;;
67195;SDS011;54122;53.538;49.366;2023-12-28T05:13:48;29.60;;;7.32;;
67195;SDS011;54122;53.538;49.366;2023-12-28T05:16:14;19.83;;;8.05;;
67195;SDS011;54122;53.538;49.366;2023-12-28T05:18:40;17.67;;;6.93;;
67195;SDS011;54122;53.538;49.366;2023-12-28T05:21:07;11.98;;;6.28;;
67195;SDS011;54122;53.538;49.366;2023-12-28T05:23:33;13.60;;;6.82;;
67195;SDS011;54122;53.538;49.366;2023-12-28T05:26:00;13.98;;;6.72;;
67195;SDS011;54122;53.538;49.366;2023-12-28T05:28:26;19.42;;;7.78;;
67195;SDS011;54122;53.538;49.366;2023-12-28T05:30:52;20.75;;;8.93;;
67195;SDS011;54122;53.538;49.366;2023-12-28T05:33:18;19.75;;;8.07;;
67195;SDS011;54122;53.538;49.366;2023-12-28T05:35:45;26.27;;;9.05;;
67195;SDS011;54122;53.538;49.366;2023-12-28T05:38:12;20.05;;;7.47;;
67195;SDS011;54122;53.538;49.366;2023-12-28T05:40:38;21.70;;;8.23;;
67195;SDS011;54122;53.538;49.366;2023-12-28T05:43:04;16.08;;;7.85;;
67195;SDS011;54122;53.538;49.366;2023-12-28T05:45:31;15.60;;;6.93;;
67195;SDS011;54122;53.538;49.366;2023-12-28T05:48:07;18.48;;;7.53;;
67195;SDS011;54122;53.538;49.366;2023-12-28T05:50:34;17.70;;;7.22;;
67195;SDS011;54122;53.538;49.366;2023-12-28T05:53:00;19.92;;;8.75;;
67195;SDS011;54122;53.538;49.366;2023-12-28T05:55:28;20.92;;;8.70;;
67195;SDS011;54122;53.538;49.366;2023-12-28T05:57:54;19.05;;;7.90;;
67195;SDS011;54122;53.538;49.366;2023-12-28T06:00:20;17.40;;;8.20;;
67195;SDS011;54122;53.538;49.366;2023-12-28T06:02:47;20.02;;;8.20;;
67195;SDS011;54122;53.538;49.366;2023-12-28T06:05:17;18.58;;;7.63;;
67195;SDS011;54122;53.538;49.366;2023-12-28T06:07:43;26.50;;;9.40;;
67195;SDS011;54122;53.538;49.366;2023-12-28T06:10:09;20.67;;;8.38;;
67195;SDS011;54122;53.538;49.366;2023-12-28T06:12:36;24.27;;;9.35;;
67195;SDS011;54122;53.538;49.366;2023-12-28T06:15:02;22.85;;;8.88;;
67195;SDS011;54122;53.538;49.366;2023-12-28T06:17:28;10.07;;;5.63;;
67195;SDS011;54122;53.538;49.366;2023-12-28T06:19:54;11.15;;;6.00;;
67195;SDS011;54122;53.538;49.366;2023-12-28T06:22:21;17.40;;;8.05;;
67195;SDS011;54122;53.538;49.366;2023-12-28T06:24:47;15.23;;;6.53;;
67195;SDS011;54122;53.538;49.366;2023-12-28T06:27:14;22.88;;;9.02;;
67195;SDS011;54122;53.538;49.366;2023-12-28T06:29:40;18.67;;;7.75;;
67195;SDS011;54122;53.538;49.366;2023-12-28T06:32:07;12.38;;;5.90;;
67195;SDS011;54122;53.538;49.366;2023-12-28T06:34:34;16.27;;;6.78;;
67195;SDS011;54122;53.538;49.366;2023-12-28T06:37:00;19.48;;;8.15;;
67195;SDS011;54122;53.538;49.366;2023-12-28T06:39:27;15.10;;;6.53;;
67195;SDS011;54122;53.538;49.366;2023-12-28T06:41:53;20.60;;;8.25;;
67195;SDS011;54122;53.538;49.366;2023-12-28T06:44:20;25.52;;;8.38;;
67195;SDS011;54122;53.538;49.366;2023-12-28T06:46:46;19.95;;;7.88;;
67195;SDS011;54122;53.538;49.366;2023-12-28T06:49:13;20.63;;;8.32;;
67195;SDS011;54122;53.538;49.366;2023-12-28T06:51:39;12.85;;;6.60;;
67195;SDS011;54122;53.538;49.366;2023-12-28T06:54:06;21.95;;;8.18;;
67195;SDS011;54122;53.538;49.366;2023-12-28T06:56:32;16.20;;;6.55;;
67195;SDS011;54122;53.538;49.366;2023-12-28T06:58:59;17.27;;;6.75;;
67195;SDS011;54122;53.538;49.366;2023-12-28T07:01:25;19.38;;;6.57;;
67195;SDS011;54122;53.538;49.366;2023-12-28T07:03:52;18.17;;;6.70;;
67195;SDS011;54122;53.538;49.366;2023-12-28T07:06:18;8.52;;;4.32;;
67195;SDS011;54122;53.538;49.366;2023-12-28T07:08:45;17.17;;;6.20;;
67195;SDS011;54122;53.538;49.366;2023-12-28T07:11:11;14.52;;;5.80;;
67195;SDS011;54122;53.538;49.366;2023-12-28T07:13:38;13.25;;;6.55;;
67195;SDS011;54122;53.538;49.366;2023-12-28T07:16:04;18.88;;;6.85;;
67195;SDS011;54122;53.538;49.366;2023-12-28T07:18:33;16.98;;;5.35;;
67195;SDS011;54122;53.538;49.366;2023-12-28T07:21:00;9.50;;;5.20;;
67195;SDS011;54122;53.538;49.366;2023-12-28T07:23:26;14.63;;;6.28;;
67195;SDS011;54122;53.538;49.366;2023-12-28T07:25:53;14.02;;;5.82;;
67195;SDS011;54122;53.538;49.366;2023-12-28T07:28:19;11.43;;;4.30;;
67195;SDS011;54122;53.538;49.366;2023-12-28T07:30:46;14.52;;;5.57;;
67195;SDS011;54122;53.538;49.366;2023-12-28T07:33:13;19.30;;;6.20;;
67195;SDS011;54122;53.538;49.366;2023-12-28T07:35:39;12.23;;;5.80;;
67195;SDS011;54122;53.538;49.366;2023-12-28T07:38:06;15.05;;;5.05;;
67195;SDS011;54122;53.538;49.366;2023-12-28T07:40:32;12.07;;;4.75;;
67195;SDS011;54122;53.538;49.366;2023-12-28T07:42:59;9.88;;;4.57;;
67195;SDS011;54122;53.538;49.366;2023-12-28T07:45:26;8.00;;;4.07;;
67195;SDS011;54122;53.538;49.366;2023-12-28T07:47:53;10.23;;;4.55;;
67195;SDS011;54122;53.538;49.366;2023-12-28T07:50:19;6.93;;;3.28;;
67195;SDS011;54122;53.538;49.366;2023-12-28T07:52:47;14.25;;;4.35;;
67195;SDS011;54122;53.538;49.366;2023-12-28T07:55:14;6.53;;;3.92;;
67195;SDS011;54122;53.538;49.366;2023-12-28T07:57:41;11.23;;;4.65;;
67195;SDS011;54122;53.538;49.366;2023-12-28T08:00:08;11.30;;;4.35;;
67195;SDS011;54122;53.538;49.366;2023-12-28T08:02:35;9.80;;;4.05;;
67195;SDS011;54122;53.538;49.366;2023-12-28T08:05:01;8.88;;;4.13;;
67195;SDS011;54122;53.538;49.366;2023-12-28T08:07:29;6.93;;;2.80;;
67195;SDS011;54122;53.538;49.366;2023-12-28T08:09:55;12.98;;;4.72;;
67195;SDS011;54122;53.538;49.366;2023-12-28T08:12:22;12.63;;;4.90;;
67195;SDS011;54122;53.538;49.366;2023-12-28T08:14:50;11.00;;;3.65;;
67195;SDS011;54122;53.538;49.366;2023-12-28T08:17:16;8.13;;;3.55;;
67195;SDS011;54122;53.538;49.366;2023-12-28T08:19:43;7.90;;;4.30;;
67195;SDS011;54122;53.538;49.366;2023-12-28T08:22:09;9.10;;;3.78;;
67195;SDS011;54122;53.538;49.366;2023-12-28T08:24:36;6.80;;;3.63;;
67195;SDS011;54122;53.538;49.366;2023-12-28T08:27:02;9.90;;;4.28;;
67195;SDS011;54122;53.538;49.366;2023-12-28T08:29:28;4.43;;;2.67;;
67195;SDS011;54122;53.538;49.366;2023-12-28T08:31:54;12.50;;;5.20;;
67195;SDS011;54122;53.538;49.366;2023-12-28T08:34:21;10.35;;;4.60;;
67195;SDS011;54122;53.538;49.366;2023-12-28T08:36:47;10.20;;;4.95;;
67195;SDS011;54122;53.538;49.366;2023-12-28T08:39:13;7.75;;;3.13;;
67195;SDS011;54122;53.538;49.366;2023-12-28T08:41:39;9.07;;;3.83;;
67195;SDS011;54122;53.538;49.366;2023-12-28T08:44:05;7.82;;;4.07;;
67195;SDS011;54122;53.538;49.366;2023-12-28T08:46:32;8.05;;;3.92;;
67195;SDS011;54122;53.538;49.366;2023-12-28T08:48:58;8.00;;;3.38;;
67195;SDS011;54122;53.538;49.366;2023-12-28T08:51:24;7.47;;;3.72;;
67195;SDS011;54122;53.538;49.366;2023-12-28T08:53:51;7.85;;;3.28;;
67195;SDS011;54122;53.538;49.366;2023-12-28T08:56:18;6.80;;;3.08;;
67195;SDS011;54122;53.538;49.366;2023-12-28T08:58:46;7.30;;;3.42;;
67195;SDS011;54122;53.538;49.366;2023-12-28T09:01:23;5.72;;;3.17;;
67195;SDS011;54122;53.538;49.366;2023-12-28T09:03:53;16.48;;;4.65;;
67195;SDS011;54122;53.538;49.366;2023-12-28T09:06:22;7.22;;;3.08;;
67195;SDS011;54122;53.538;49.366;2023-12-28T09:08:49;7.10;;;3.25;;
67195;SDS011;54122;53.538;49.366;2023-12-28T09:11:17;8.32;;;3.28;;
67195;SDS011;54122;53.538;49.366;2023-12-28T09:13:44;4.97;;;2.50;;
67195;SDS011;54122;53.538;49.366;2023-12-28T09:16:11;8.57;;;4.45;;
67195;SDS011;54122;53.538;49.366;2023-12-28T09:18:38;7.55;;;3.78;;
67195;SDS011;54122;53.538;49.366;2023-12-28T09:21:06;17.20;;;4.07;;
67195;SDS011;54122;53.538;49.366;2023-12-28T09:23:34;7.63;;;2.67;;
67195;SDS011;54122;53.538;49.366;2023-12-28T09:26:02;8.38;;;2.85;;
67195;SDS011;54122;53.538;49.366;2023-12-28T09:28:29;4.93;;;2.03;;
67195;SDS011;54122;53.538;49.366;2023-12-28T09:30:56;9.30;;;2.97;;
67195;SDS011;54122;53.538;49.366;2023-12-28T09:33:22;8.43;;;3.67;;
67195;SDS011;54122;53.538;49.366;2023-12-28T09:35:48;8.77;;;3.90;;
67195;SDS011;54122;53.538;49.366;2023-12-28T09:38:15;5.30;;;2.38;;
67195;SDS011;54122;53.538;49.366;2023-12-28T09:40:41;7.68;;;4.35;;
67195;SDS011;54122;53.538;49.366;2023-12-28T09:43:12;8.02;;;3.90;;
67195;SDS011;54122;53.538;49.366;2023-12-28T09:45:48;5.00;;;2.45;;
67195;SDS011;54122;53.538;49.366;2023-12-28T09:48:18;8.45;;;3.78;;
67195;SDS011;54122;53.538;49.366;2023-12-28T09:50:53;8.07;;;3.22;;
67195;SDS011;54122;53.538;49.366;2023-12-28T09:53:21;10.50;;;4.40;;
67195;SDS011;54122;53.538;49.366;2023-12-28T09:55:48;7.88;;;3.20;;
67195;SDS011;54122;53.538;49.366;2023-12-28T09:58:17;10.55;;;3.47;;
67195;SDS011;54122;53.538;49.366;2023-12-28T10:00:45;11.18;;;4.38;;
67195;SDS011;54122;53.538;49.366;2023-12-28T10:03:12;4.10;;;2.28;;
67195;SDS011;54122;53.538;49.366;2023-12-28T10:05:43;4.55;;;2.78;;
67195;SDS011;54122;53.538;49.366;2023-12-28T10:08:13;9.57;;;4.20;;
67195;SDS011;54122;53.538;49.366;2023-12-28T10:10:43;10.60;;;3.75;;
67195;SDS011;54122;53.538;49.366;2023-12-28T10:13:16;9.13;;;4.10;;
67195;SDS011;54122;53.538;49.366;2023-12-28T10:15:43;6.78;;;3.03;;
67195;SDS011;54122;53.538;49.366;2023-12-28T10:18:09;5.55;;;2.53;;
67195;SDS011;54122;53.538;49.366;2023-12-28T10:20:36;7.45;;;3.33;;
67195;SDS011;54122;53.538;49.366;2023-12-28T10:23:02;7.72;;;3.60;;
67195;SDS011;54122;53.538;49.366;2023-12-28T10:25:30;10.25;;;4.10;;
67195;SDS011;54122;53.538;49.366;2023-12-28T10:27:57;7.75;;;2.58;;
67195;SDS011;54122;53.538;49.366;2023-12-28T10:30:29;7.10;;;3.38;;
67195;SDS011;54122;53.538;49.366;2023-12-28T10:32:56;6.15;;;2.75;;
67195;SDS011;54122;53.538;49.366;2023-12-28T10:35:23;6.03;;;3.00;;
67195;SDS011;54122;53.538;49.366;2023-12-28T10:37:51;9.30;;;3.38;;
67195;SDS011;54122;53.538;49.366;2023-12-28T10:40:21;7.30;;;2.50;;
67195;SDS011;54122;53.538;49.366;2023-12-28T10:42:52;7.38;;;2.88;;
67195;SDS011;54122;53.538;49.366;2023-12-28T10:45:25;7.07;;;2.08;;
67195;SDS011;54122;53.538;49.366;2023-12-28T10:48:04;3.60;;;1.27;;
67195;SDS011;54122;53.538;49.366;2023-12-28T11:01:30;9.82;;;3.92;;
67195;SDS011;54122;53.538;49.366;2023-12-28T11:04:03;8.38;;;2.40;;
67195;SDS011;54122;53.538;49.366;2023-12-28T11:06:37;6.15;;;2.75;;
67195;SDS011;54122;53.538;49.366;2023-12-28T11:09:05;8.23;;;3.53;;
67195;SDS011;54122;53.538;49.366;2023-12-28T11:11:34;5.65;;;2.08;;
67195;SDS011;54122;53.538;49.366;2023-12-28T11:14:02;12.20;;;4.07;;
67195;SDS011;54122;53.538;49.366;2023-12-28T11:16:30;7.20;;;3.25;;
67195;SDS011;54122;53.538;49.366;2023-12-28T11:18:58;7.97;;;3.20;;
67195;SDS011;54122;53.538;49.366;2023-12-28T11:21:25;5.50;;;3.20;;
67195;SDS011;54122;53.538;49.366;2023-12-28T11:23:52;11.13;;;3.63;;
67195;SDS011;54122;53.538;49.366;2023-12-28T11:26:20;6.75;;;4.35;;
67195;SDS011;54122;53.538;49.366;2023-12-28T11:28:47;6.30;;;3.85;;
67195;SDS011;54122;53.538;49.366;2023-12-28T11:31:13;7.95;;;3.60;;
67195;SDS011;54122;53.538;49.366;2023-12-28T11:33:47;3.33;;;1.65;;
67195;SDS011;54122;53.538;49.366;2023-12-28T11:36:26;5.47;;;3.60;;
67195;SDS011;54122;53.538;49.366;2023-12-28T11:39:05;9.00;;;3.50;;
67195;SDS011;54122;53.538;49.366;2023-12-28T11:41:32;5.57;;;2.88;;
67195;SDS011;54122;53.538;49.366;2023-12-28T11:44:04;6.03;;;2.28;;
67195;SDS011;54122;53.538;49.366;2023-12-28T11:46:31;5.60;;;3.13;;
67195;SDS011;54122;53.538;49.366;2023-12-28T11:49:08;10.65;;;4.20;;
67195;SDS011;54122;53.538;49.366;2023-12-28T11:51:35;15.57;;;3.35;;
67195;SDS011;54122;53.538;49.366;2023-12-28T11:54:03;5.38;;;2.75;;
67195;SDS011;54122;53.538;49.366;2023-12-28T11:56:30;8.07;;;3.15;;
67195;SDS011;54122;53.538;49.366;2023-12-28T11:58:58;8.75;;;2.70;;
67195;SDS011;54122;53.538;49.366;2023-12-28T12:01:27;19.60;;;3.38;;
67195;SDS011;54122;53.538;49.366;2023-12-28T12:03:54;8.48;;;3.00;;
67195;SDS011;54122;53.538;49.366;2023-12-28T12:06:20;8.25;;;3.28;;
67195;SDS011;54122;53.538;49.366;2023-12-28T12:08:46;5.07;;;2.67;;
67195;SDS011;54122;53.538;49.366;2023-12-28T12:11:12;7.00;;;3.67;;
67195;SDS011;54122;53.538;49.366;2023-12-28T12:13:38;8.65;;;3.92;;
67195;SDS011;54122;53.538;49.366;2023-12-28T12:16:05;6.32;;;2.92;;
67195;SDS011;54122;53.538;49.366;2023-12-28T12:18:32;7.43;;;3.20;;
67195;SDS011;54122;53.538;49.366;2023-12-28T12:20:58;9.35;;;4.30;;
67195;SDS011;54122;53.538;49.366;2023-12-28T12:23:25;7.55;;;3.13;;
67195;SDS011;54122;53.538;49.366;2023-12-28T12:25:52;13.65;;;3.90;;
67195;SDS011;54122;53.538;49.366;2023-12-28T12:28:21;6.88;;;3.88;;
67195;SDS011;54122;53.538;49.366;2023-12-28T12:30:52;6.72;;;3.22;;
67195;SDS011;54122;53.538;49.366;2023-12-28T12:33:20;8.25;;;3.33;;
67195;SDS011;54122;53.538;49.366;2023-12-28T12:35:47;9.27;;;3.70;;
67195;SDS011;54122;53.538;49.366;2023-12-28T12:38:14;5.13;;;2.67;;
67195;SDS011;54122;53.538;49.366;2023-12-28T12:40:42;6.13;;;3.00;;
67195;SDS011;54122;53.538;49.366;2023-12-28T12:43:09;4.78;;;2.65;;
67195;SDS011;54122;53.538;49.366;2023-12-28T12:45:36;5.97;;;2.67;;
67195;SDS011;54122;53.538;49.366;2023-12-28T12:48:03;5.75;;;2.58;;
67195;SDS011;54122;53.538;49.366;2023-12-28T12:50:33;12.05;;;3.65;;
67195;SDS011;54122;53.538;49.366;2023-12-28T12:52:59;6.80;;;2.50;;
67195;SDS011;54122;53.538;49.366;2023-12-28T12:55:26;7.70;;;2.28;;
67195;SDS011;54122;53.538;49.366;2023-12-28T12:57:53;9.70;;;3.20;;
67195;SDS011;54122;53.538;49.366;2023-12-28T13:00:22;9.80;;;3.95;;
67195;SDS011;54122;53.538;49.366;2023-12-28T13:02:51;6.35;;;2.50;;
67195;SDS011;54122;53.538;49.366;2023-12-28T13:05:23;8.85;;;3.30;;
67195;SDS011;54122;53.538;49.366;2023-12-28T13:07:51;6.47;;;2.85;;
67195;SDS011;54122;53.538;49.366;2023-12-28T13:10:18;5.13;;;2.10;;
67195;SDS011;54122;53.538;49.366;2023-12-28T13:12:45;6.50;;;2.83;;
67195;SDS011;54122;53.538;49.366;2023-12-28T13:15:12;2.47;;;1.45;;
67195;SDS011;54122;53.538;49.366;2023-12-28T13:17:39;4.07;;;1.83;;
67195;SDS011;54122;53.538;49.366;2023-12-28T13:20:05;5.05;;;2.47;;
67195;SDS011;54122;53.538;49.366;2023-12-28T13:22:32;3.42;;;1.95;;
67195;SDS011;54122;53.538;49.366;2023-12-28T13:24:59;5.63;;;2.20;;
67195;SDS011;54122;53.538;49.366;2023-12-28T13:27:27;9.75;;;2.33;;
67195;SDS011;54122;53.538;49.366;2023-12-28T13:29:57;4.55;;;1.95;;
67195;SDS011;54122;53.538;49.366;2023-12-28T13:32:24;5.03;;;2.40;;
67195;SDS011;54122;53.538;49.366;2023-12-28T13:34:50;4.40;;;1.83;;
67195;SDS011;54122;53.538;49.366;2023-12-28T13:37:18;3.90;;;2.03;;
67195;SDS011;54122;53.538;49.366;2023-12-28T13:39:45;3.42;;;1.67;;
67195;SDS011;54122;53.538;49.366;2023-12-28T13:42:12;3.63;;;1.75;;
67195;SDS011;54122;53.538;49.366;2023-12-28T13:44:39;8.60;;;2.25;;
67195;SDS011;54122;53.538;49.366;2023-12-28T13:47:06;5.55;;;1.92;;
67195;SDS011;54122;53.538;49.366;2023-12-28T13:49:33;5.43;;;2.25;;
67195;SDS011;54122;53.538;49.366;2023-12-28T13:51:59;4.18;;;2.15;;
67195;SDS011;54122;53.538;49.366;2023-12-28T13:54:26;8.27;;;2.17;;
67195;SDS011;54122;53.538;49.366;2023-12-28T13:56:53;4.55;;;1.95;;
67195;SDS011;54122;53.538;49.366;2023-12-28T13:59:23;4.18;;;1.85;;
67195;SDS011;54122;53.538;49.366;2023-12-28T14:01:50;5.25;;;2.70;;
67195;SDS011;54122;53.538;49.366;2023-12-28T14:04:16;4.45;;;2.17;;
67195;SDS011;54122;53.538;49.366;2023-12-28T14:06:43;6.35;;;2.40;;
67195;SDS011;54122;53.538;49.366;2023-12-28T14:09:09;8.50;;;2.70;;
67195;SDS011;54122;53.538;49.366;2023-12-28T14:11:38;3.85;;;1.90;;
67195;SDS011;54122;53.538;49.366;2023-12-28T14:14:04;3.90;;;2.08;;
67195;SDS011;54122;53.538;49.366;2023-12-28T14:16:31;4.28;;;1.38;;
67195;SDS011;54122;53.538;49.366;2023-12-28T14:18:58;3.58;;;2.00;;
67195;SDS011;54122;53.538;49.366;2023-12-28T14:21:25;3.70;;;1.65;;
67195;SDS011;54122;53.538;49.366;2023-12-28T14:23:52;3.95;;;2.10;;
67195;SDS011;54122;53.538;49.366;2023-12-28T14:26:19;4.32;;;2.25;;
67195;SDS011;54122;53.538;49.366;2023-12-28T14:28:47;4.63;;;2.67;;
67195;SDS011;54122;53.538;49.366;2023-12-28T14:31:16;6.82;;;2.85;;
67195;SDS011;54122;53.538;49.366;2023-12-28T14:33:42;5.35;;;2.65;;
67195;SDS011;54122;53.538;49.366;2023-12-28T14:36:30;3.55;;;1.92;;
67195;SDS011;54122;53.538;49.366;2023-12-28T14:39:00;6.55;;;2.70;;
67195;SDS011;54122;53.538;49.366;2023-12-28T14:41:27;5.32;;;2.10;;
67195;SDS011;54122;53.538;49.366;2023-12-28T14:43:55;4.20;;;2.25;;
67195;SDS011;54122;53.538;49.366;2023-12-28T14:46:25;6.40;;;2.50;;